Time;durP1;ratioP1;P1;durP2;ratioP2;P2;SDS_P1;SDS_P2;PMS_P1;PMS_P2;Temp;Humidity;BMP_temperature;BMP_pressure;BME280_temperature;BME280_humidity;BME280_pressure;Samples;Min_cycle;Max_cycle;Signal;HPM_P1;HPM_P2
2023/11/30 00:00:44;;;;;;;12.50;9.50;;;;;;;2.36;100.00;99853.52;109312;1253;58792;-61
2023/11/30 00:03:12;;;;;;;13.00;9.60;;;;;;;2.35;100.00;99852.20;109326;1252;72889;-58
2023/11/30 00:05:40;;;;;;;12.60;9.70;;;;;;;2.33;100.00;99851.30;109298;1252;66919;-57
2023/11/30 00:08:07;;;;;;;12.50;9.00;;;;;;;2.32;100.00;99854.20;109317;1254;72368;-58
2023/11/30 00:10:35;;;;;;;11.10;8.20;;;;;;;2.35;100.00;99850.67;109371;1254;60514;-57
2023/11/30 00:13:04;;;;;;;11.50;9.00;;;;;;;2.34;100.00;99848.17;109383;1253;60498;-57
2023/11/30 00:15:31;;;;;;;13.80;9.40;;;;;;;2.33;100.00;99848.06;109239;1253;73906;-57
2023/11/30 00:17:59;;;;;;;11.60;8.60;;;;;;;2.33;100.00;99848.58;109448;1253;66965;-57
2023/11/30 00:20:27;;;;;;;12.10;8.90;;;;;;;2.33;100.00;99850.15;109315;1254;72793;-58
2023/11/30 00:22:54;;;;;;;11.50;8.40;;;;;;;2.33;100.00;99850.89;109369;1254;60015;-59
2023/11/30 00:25:22;;;;;;;11.40;9.10;;;;;;;2.27;100.00;99849.20;109352;1254;58980;-57
2023/11/30 00:27:49;;;;;;;11.80;8.80;;;;;;;2.29;100.00;99846.43;109376;1254;73996;-57
2023/11/30 00:30:17;;;;;;;12.00;8.60;;;;;;;2.28;100.00;99847.88;109163;1254;66856;-57
2023/11/30 00:32:46;;;;;;;12.70;8.70;;;;;;;2.28;100.00;99852.17;109160;1253;71400;-58
2023/11/30 00:35:14;;;;;;;14.80;10.00;;;;;;;2.26;100.00;99851.98;109300;1254;59657;-58
2023/11/30 00:37:42;;;;;;;13.00;9.70;;;;;;;2.26;100.00;99856.77;109326;1253;59265;-57
2023/11/30 00:40:09;;;;;;;13.20;9.80;;;;;;;2.25;100.00;99856.42;109414;1253;72385;-57
2023/11/30 00:42:37;;;;;;;13.70;10.30;;;;;;;2.26;100.00;99856.45;109407;1253;66941;-57
2023/11/30 00:45:06;;;;;;;13.80;10.20;;;;;;;2.25;100.00;99866.34;109336;1253;72742;-58
2023/11/30 00:47:33;;;;;;;14.10;10.00;;;;;;;2.29;100.00;99873.71;109315;1252;60455;-58
2023/11/30 00:50:01;;;;;;;12.80;9.40;;;;;;;2.30;100.00;99871.02;109362;1254;59639;-58
2023/11/30 00:52:29;;;;;;;13.70;10.10;;;;;;;2.27;100.00;99872.64;109364;1254;72607;-57
2023/11/30 00:54:56;;;;;;;13.00;10.40;;;;;;;2.29;100.00;99874.40;109397;1254;65489;-57
2023/11/30 00:57:24;;;;;;;12.90;9.30;;;;;;;2.30;100.00;99875.79;109422;1252;71831;-57
2023/11/30 00:59:52;;;;;;;13.40;10.10;;;;;;;2.31;100.00;99882.89;109317;1258;60417;-57
2023/11/30 01:02:19;;;;;;;14.70;10.30;;;;;;;2.31;100.00;99883.11;109358;1254;58824;-57
2023/11/30 01:04:47;;;;;;;13.90;10.70;;;;;;;2.32;100.00;99885.78;109359;1254;73148;-57
2023/11/30 01:07:15;;;;;;;16.90;10.70;;;;;;;2.30;100.00;99892.60;109333;1254;66847;-58
2023/11/30 01:09:42;;;;;;;13.30;10.30;;;;;;;2.26;100.00;99892.00;109307;1254;73116;-58
2023/11/30 01:12:10;;;;;;;11.00;8.60;;;;;;;2.31;100.00;99885.33;109359;1254;60359;-58
2023/11/30 01:14:39;;;;;;;12.50;9.50;;;;;;;2.30;100.00;99886.30;109333;1253;60086;-57
2023/11/30 01:17:07;;;;;;;12.30;9.60;;;;;;;2.25;100.00;99878.48;109363;1254;73848;-57
2023/11/30 01:19:35;;;;;;;11.80;9.10;;;;;;;2.21;100.00;99866.73;109373;1253;67199;-60
2023/11/30 01:22:05;;;;;;;12.00;8.40;;;;;;;2.14;100.00;99863.35;109341;1254;72737;-56
2023/11/30 01:24:32;;;;;;;11.00;8.70;;;;;;;2.07;100.00;99867.73;109349;1254;59409;-57
2023/11/30 01:27:00;;;;;;;12.20;8.80;;;;;;;2.01;100.00;99875.14;109377;1253;60648;-57
2023/11/30 01:29:28;;;;;;;12.20;8.60;;;;;;;1.95;100.00;99886.84;109356;1254;73951;-58
2023/11/30 01:31:55;;;;;;;10.60;7.70;;;;;;;1.87;100.00;99889.06;109410;1253;67674;-57
2023/11/30 01:34:23;;;;;;;10.30;7.80;;;;;;;1.80;100.00;99895.33;109395;1253;72719;-57
2023/11/30 01:36:51;;;;;;;11.60;8.50;;;;;;;1.71;100.00;99899.61;109323;1253;60944;-58
2023/11/30 01:39:19;;;;;;;11.60;8.00;;;;;;;1.68;100.00;99903.96;109299;1257;60089;-61
2023/11/30 01:41:47;;;;;;;11.90;8.10;;;;;;;1.64;100.00;99908.94;109389;1254;72493;-57
2023/11/30 01:44:14;;;;;;;10.90;8.00;;;;;;;1.62;100.00;99906.33;109245;1253;65149;-58
2023/11/30 01:46:42;;;;;;;11.20;7.80;;;;;;;1.62;100.00;99907.89;109331;1258;71389;-57
2023/11/30 01:49:10;;;;;;;11.70;8.00;;;;;;;1.60;100.00;99910.16;109322;1253;60054;-61
2023/11/30 01:51:37;;;;;;;10.10;7.80;;;;;;;1.57;100.00;99909.20;109324;1254;58899;-57
2023/11/30 01:54:05;;;;;;;11.20;7.60;;;;;;;1.52;100.00;99899.16;109388;1254;73927;-57
2023/11/30 01:56:34;;;;;;;10.20;7.00;;;;;;;1.46;100.00;99903.27;109473;1254;66837;-56
2023/11/30 01:59:02;;;;;;;10.30;7.50;;;;;;;1.40;100.00;99910.17;109195;1253;72766;-57
2023/11/30 02:01:30;;;;;;;10.30;7.60;;;;;;;1.33;100.00;99905.60;109356;1253;59671;-57
2023/11/30 02:03:58;;;;;;;10.30;7.40;;;;;;;1.28;100.00;99900.88;109253;1259;59014;-58
2023/11/30 02:06:25;;;;;;;10.30;7.20;;;;;;;1.24;100.00;99899.19;109370;1253;73944;-56
2023/11/30 02:08:54;;;;;;;11.60;7.40;;;;;;;1.19;100.00;99895.34;109406;1253;66941;-56
2023/11/30 02:11:22;;;;;;;11.50;8.00;;;;;;;1.12;100.00;99905.70;109347;1254;72743;-56
2023/11/30 02:13:49;;;;;;;13.20;7.90;;;;;;;1.07;100.00;99901.02;109318;1253;61144;-56
2023/11/30 02:16:17;;;;;;;10.40;7.00;;;;;;;0.98;100.00;99907.56;109219;1252;60184;-56
2023/11/30 02:18:45;;;;;;;12.80;8.50;;;;;;;0.96;100.00;99923.10;109207;1254;73886;-56
2023/11/30 02:21:12;;;;;;;10.60;7.80;;;;;;;0.94;100.00;99923.98;109347;1254;65653;-56
2023/11/30 02:23:40;;;;;;;10.90;7.50;;;;;;;0.92;100.00;99939.73;109270;1254;72785;-56
2023/11/30 02:26:07;;;;;;;12.30;7.80;;;;;;;0.94;100.00;99951.20;109278;1257;59657;-56
2023/11/30 02:28:35;;;;;;;10.40;8.10;;;;;;;0.88;100.00;99958.21;109363;1252;60074;-56
2023/11/30 02:31:03;;;;;;;12.00;7.80;;;;;;;0.86;100.00;99963.50;109443;1253;73475;-56
2023/11/30 02:33:30;;;;;;;10.40;7.70;;;;;;;0.84;100.00;99960.08;109370;1253;65260;-56
2023/11/30 02:35:58;;;;;;;10.70;8.10;;;;;;;0.83;100.00;99955.20;109280;1253;72667;-56
2023/11/30 02:38:26;;;;;;;12.60;8.60;;;;;;;0.83;100.00;99939.99;109195;1254;59981;-55
2023/11/30 02:40:53;;;;;;;12.20;9.10;;;;;;;0.82;100.00;99939.23;109307;1253;59169;-57
2023/11/30 02:43:22;;;;;;;13.40;8.80;;;;;;;0.80;100.00;99941.27;109317;1254;72117;-55
2023/11/30 02:45:49;;;;;;;12.80;8.10;;;;;;;0.80;100.00;99937.54;109332;1253;66272;-56
2023/11/30 02:48:17;;;;;;;11.50;7.50;;;;;;;0.79;100.00;99940.84;109274;1253;73288;-56
2023/11/30 02:50:45;;;;;;;12.00;8.70;;;;;;;0.78;100.00;99944.52;109287;1253;59588;-55
2023/11/30 02:53:12;;;;;;;11.80;8.40;;;;;;;0.78;100.00;99953.24;109388;1253;58066;-55
2023/11/30 02:55:41;;;;;;;12.20;8.40;;;;;;;0.78;100.00;99957.67;109348;1253;72471;-57
2023/11/30 02:58:08;;;;;;;11.50;8.00;;;;;;;0.77;100.00;99962.54;109326;1253;67027;-60
2023/11/30 03:00:36;;;;;;;11.10;7.70;;;;;;;0.77;100.00;99969.09;109199;1259;71416;-55
2023/11/30 03:03:04;;;;;;;11.50;8.30;;;;;;;0.74;100.00;99965.70;109257;1254;59044;-56
2023/11/30 03:05:32;;;;;;;15.00;9.00;;;;;;;0.71;100.00;99967.98;109309;1254;60127;-55
2023/11/30 03:07:59;;;;;;;12.80;8.30;;;;;;;0.66;100.00;99963.30;109270;1253;74053;-60
2023/11/30 03:10:27;;;;;;;12.50;9.00;;;;;;;0.66;100.00;99967.70;109301;1253;66989;-55
2023/11/30 03:12:55;;;;;;;11.90;7.70;;;;;;;0.76;100.00;99963.47;109285;1254;72369;-56
2023/11/30 03:15:23;;;;;;;11.70;8.30;;;;;;;0.78;100.00;99960.40;109298;1253;59787;-56
2023/11/30 03:17:50;;;;;;;12.40;8.90;;;;;;;0.80;100.00;99962.65;109303;1253;58834;-56
2023/11/30 03:20:18;;;;;;;13.70;9.20;;;;;;;0.80;100.00;99963.70;109262;1254;73909;-56
2023/11/30 03:22:46;;;;;;;11.50;8.10;;;;;;;0.82;100.00;99957.20;109248;1253;65707;-56
2023/11/30 03:25:13;;;;;;;12.60;8.90;;;;;;;0.83;100.00;99959.45;109338;1254;72751;-55
2023/11/30 03:27:41;;;;;;;12.10;8.50;;;;;;;0.72;100.00;99963.10;109335;1254;59612;-57
2023/11/30 03:30:09;;;;;;;13.30;8.90;;;;;;;0.68;100.00;99958.70;109267;1253;60508;-56
2023/11/30 03:32:37;;;;;;;12.80;8.60;;;;;;;0.70;100.00;99959.03;109407;1254;73860;-55
2023/11/30 03:35:05;;;;;;;13.30;8.80;;;;;;;0.71;100.00;99968.16;109318;1253;67475;-56
2023/11/30 03:37:34;;;;;;;12.60;9.00;;;;;;;0.68;100.00;99969.23;109243;1254;73110;-56
2023/11/30 03:40:01;;;;;;;13.50;9.40;;;;;;;0.68;100.00;99977.66;109151;1253;59852;-56
2023/11/30 03:42:29;;;;;;;12.30;8.80;;;;;;;0.64;100.00;99982.60;109281;1254;60485;-55
2023/11/30 03:44:57;;;;;;;13.00;8.90;;;;;;;0.62;100.00;99989.96;109317;1254;73983;-55
2023/11/30 03:47:25;;;;;;;12.40;9.10;;;;;;;0.60;100.00;99993.33;109387;1254;67135;-55
2023/11/30 03:49:52;;;;;;;14.20;9.70;;;;;;;0.60;100.00;100010.27;109369;1253;73255;-56
2023/11/30 03:52:21;;;;;;;14.80;10.00;;;;;;;0.58;100.00;100022.55;109315;1253;60630;-55
2023/11/30 03:54:48;;;;;;;14.10;9.90;;;;;;;0.59;100.00;100023.88;109329;1253;58763;-56
2023/11/30 03:57:16;;;;;;;15.50;9.90;;;;;;;0.59;100.00;100020.48;109345;1253;72947;-55
2023/11/30 03:59:44;;;;;;;14.10;9.40;;;;;;;0.56;100.00;100023.77;109363;1254;65933;-55
2023/11/30 04:02:11;;;;;;;14.50;9.50;;;;;;;0.56;100.00;100028.04;109283;1254;72502;-56
2023/11/30 04:04:39;;;;;;;13.50;9.40;;;;;;;0.54;100.00;100038.68;109302;1253;59874;-56
2023/11/30 04:07:07;;;;;;;12.10;8.70;;;;;;;0.57;100.00;100043.70;109340;1254;60119;-56
2023/11/30 04:09:37;;;;;;;13.20;9.40;;;;;;;0.57;100.00;100034.61;109359;1253;73922;-56
2023/11/30 04:12:05;;;;;;;13.10;9.50;;;;;;;0.57;100.00;100029.99;109238;1253;66975;-55
2023/11/30 04:14:33;;;;;;;12.80;9.00;;;;;;;0.59;100.00;100023.36;109150;1254;71377;-61
2023/11/30 04:17:01;;;;;;;14.00;9.40;;;;;;;0.59;100.00;100030.84;109335;1253;59850;-56
2023/11/30 04:19:31;;;;;;;14.50;10.30;;;;;;;0.61;100.00;100043.55;109342;1253;58805;-56
2023/11/30 04:21:58;;;;;;;17.40;10.90;;;;;;;0.62;100.00;100043.15;109328;1252;73927;-55
2023/11/30 04:24:26;;;;;;;14.00;9.80;;;;;;;0.62;100.00;100038.83;109197;1254;66985;-55
2023/11/30 04:26:54;;;;;;;13.50;9.20;;;;;;;0.63;100.00;100042.83;109291;1254;73774;-55
2023/11/30 04:29:21;;;;;;;14.40;10.50;;;;;;;0.62;100.00;100052.52;109303;1254;59790;-57
2023/11/30 04:31:49;;;;;;;13.30;10.00;;;;;;;0.60;100.00;100061.41;109321;1253;58184;-58
2023/11/30 04:34:18;;;;;;;14.40;10.00;;;;;;;0.59;100.00;100062.38;109240;1253;73801;-57
2023/11/30 04:36:46;;;;;;;16.50;11.30;;;;;;;0.59;100.00;100055.81;109427;1253;66915;-62
2023/11/30 04:39:14;;;;;;;15.20;10.60;;;;;;;0.61;100.00;100056.56;109318;1253;72755;-57
2023/11/30 04:41:42;;;;;;;14.20;10.10;;;;;;;0.61;100.00;100053.31;109188;1254;61022;-56
2023/11/30 04:44:09;;;;;;;15.90;10.80;;;;;;;0.60;100.00;100058.14;109335;1254;60205;-57
2023/11/30 04:46:37;;;;;;;15.50;10.10;;;;;;;0.60;100.00;100056.95;109310;1254;74761;-57
2023/11/30 04:49:05;;;;;;;14.60;10.10;;;;;;;0.59;100.00;100048.65;109297;1254;65854;-58
2023/11/30 04:51:33;;;;;;;12.90;8.90;;;;;;;0.58;100.00;100065.89;109232;1252;72841;-56
2023/11/30 04:54:01;;;;;;;14.00;9.70;;;;;;;0.57;100.00;100073.64;109366;1253;59689;-57
2023/11/30 04:56:29;;;;;;;13.90;10.20;;;;;;;0.57;100.00;100071.27;109271;1253;58882;-56
2023/11/30 04:58:56;;;;;;;14.40;10.40;;;;;;;0.57;100.00;100071.41;109326;1252;74729;-61
2023/11/30 05:01:24;;;;;;;14.00;10.60;;;;;;;0.56;100.00;100074.20;109439;1253;65640;-57
2023/11/30 05:03:51;;;;;;;13.00;9.70;;;;;;;0.56;100.00;100081.43;109333;1252;71771;-57
2023/11/30 05:06:19;;;;;;;14.10;10.40;;;;;;;0.55;100.00;100088.17;109305;1253;60894;-56
2023/11/30 05:08:47;;;;;;;14.30;10.10;;;;;;;0.54;100.00;100087.38;109308;1254;58915;-60
2023/11/30 05:11:15;;;;;;;16.80;10.80;;;;;;;0.55;100.00;100090.23;109329;1254;73947;-58
2023/11/30 05:13:43;;;;;;;16.60;10.70;;;;;;;0.56;100.00;100092.69;109359;1254;66146;-57
2023/11/30 05:16:11;;;;;;;15.90;10.20;;;;;;;0.56;100.00;100093.84;109400;1253;72737;-56
2023/11/30 05:18:38;;;;;;;15.40;11.30;;;;;;;0.57;100.00;100102.14;109302;1252;60904;-56
2023/11/30 05:21:06;;;;;;;15.60;11.30;;;;;;;0.58;100.00;100108.63;109311;1253;59398;-57
2023/11/30 05:23:34;;;;;;;18.10;12.30;;;;;;;0.59;100.00;100118.10;109308;1253;74071;-56
2023/11/30 05:26:02;;;;;;;15.50;11.40;;;;;;;0.59;100.00;100118.77;109370;1253;65873;-56
2023/11/30 05:28:31;;;;;;;15.50;11.50;;;;;;;0.61;100.00;100121.90;109329;1253;73011;-56
2023/11/30 05:30:59;;;;;;;18.70;10.90;;;;;;;0.62;100.00;100125.04;109295;1254;59607;-56
2023/11/30 05:33:29;;;;;;;18.40;11.80;;;;;;;0.62;100.00;100133.60;109315;1253;59495;-56
2023/11/30 05:35:57;;;;;;;16.80;11.40;;;;;;;0.62;100.00;100138.38;109429;1253;72480;-56
2023/11/30 05:38:25;;;;;;;16.60;11.80;;;;;;;0.64;100.00;100146.09;109344;1254;66985;-57
2023/11/30 05:40:53;;;;;;;15.20;10.90;;;;;;;0.67;100.00;100147.58;109326;1253;71678;-57
2023/11/30 05:43:21;;;;;;;16.70;11.50;;;;;;;0.70;100.00;100143.85;109219;1253;58932;-57
2023/11/30 05:45:48;;;;;;;16.70;10.50;;;;;;;0.73;100.00;100142.27;109327;1252;59212;-56
2023/11/30 05:48:16;;;;;;;19.10;12.70;;;;;;;0.78;100.00;100143.65;109345;1254;74807;-56
2023/11/30 05:50:44;;;;;;;16.20;11.10;;;;;;;0.82;100.00;100152.05;109367;1252;66990;-56
2023/11/30 05:53:11;;;;;;;16.40;10.20;;;;;;;0.85;100.00;100165.31;109301;1253;72845;-61
2023/11/30 05:55:39;;;;;;;15.50;10.80;;;;;;;0.86;100.00;100171.17;109295;1254;61000;-57
2023/11/30 05:58:06;;;;;;;15.10;10.20;;;;;;;0.87;100.00;100172.29;109366;1253;59301;-56
2023/11/30 06:00:34;;;;;;;15.70;10.80;;;;;;;0.87;100.00;100173.64;109322;1253;73482;-57
2023/11/30 06:03:02;;;;;;;14.20;10.30;;;;;;;0.87;100.00;100181.02;109345;1253;66847;-57
2023/11/30 06:05:34;;;;;;;16.80;11.40;;;;;;;0.86;100.00;100185.85;109376;1253;73265;-56
2023/11/30 06:08:01;;;;;;;13.10;10.00;;;;;;;0.85;100.00;100185.13;109344;1253;59415;-57
2023/11/30 06:10:29;;;;;;;16.30;10.20;;;;;;;0.83;100.00;100187.81;109358;1253;58918;-56
2023/11/30 06:12:56;;;;;;;12.80;9.50;;;;;;;0.82;100.00;100182.27;109358;1253;74571;-56
2023/11/30 06:15:24;;;;;;;13.40;8.60;;;;;;;0.81;100.00;100186.98;109293;1253;67075;-56
2023/11/30 06:17:52;;;;;;;14.10;9.90;;;;;;;0.79;100.00;100189.74;109338;1253;72856;-56
2023/11/30 06:20:20;;;;;;;12.60;8.90;;;;;;;0.79;100.00;100188.52;109252;1253;60882;-56
2023/11/30 06:22:47;;;;;;;16.40;10.40;;;;;;;0.78;100.00;100192.84;109320;1253;59083;-57
2023/11/30 06:25:15;;;;;;;13.80;9.50;;;;;;;0.80;100.00;100187.95;109315;1253;74744;-60
2023/11/30 06:27:42;;;;;;;14.40;9.60;;;;;;;0.81;100.00;100193.69;109351;1253;67504;-55
2023/11/30 06:30:10;;;;;;;11.70;8.40;;;;;;;0.83;100.00;100191.27;109302;1253;71809;-56
2023/11/30 06:32:38;;;;;;;14.90;9.30;;;;;;;0.88;100.00;100193.45;109332;1253;58974;-57
2023/11/30 06:35:06;;;;;;;12.70;9.00;;;;;;;0.92;100.00;100200.31;109411;1253;59298;-56
2023/11/30 06:37:34;;;;;;;13.90;9.80;;;;;;;0.97;100.00;100210.35;109248;1253;73461;-61
2023/11/30 06:40:01;;;;;;;12.80;9.10;;;;;;;1.01;100.00;100217.60;109385;1253;66971;-55
2023/11/30 06:42:29;;;;;;;11.90;8.60;;;;;;;1.03;100.00;100215.80;109276;1253;72157;-56
2023/11/30 06:44:57;;;;;;;12.90;9.10;;;;;;;1.07;100.00;100213.95;109308;1253;59843;-56
2023/11/30 06:47:24;;;;;;;13.40;9.60;;;;;;;1.11;100.00;100216.95;109326;1253;58929;-56
2023/11/30 06:49:52;;;;;;;13.80;9.00;;;;;;;1.13;100.00;100215.69;109287;1253;74746;-59
2023/11/30 06:52:20;;;;;;;13.40;9.40;;;;;;;1.13;100.00;100212.83;109314;1252;69259;-56
2023/11/30 06:54:47;;;;;;;11.80;8.40;;;;;;;1.11;100.00;100221.55;109338;1253;71474;-56
2023/11/30 06:57:15;;;;;;;11.30;7.80;;;;;;;1.07;100.00;100217.97;109276;1253;59868;-57
2023/11/30 06:59:43;;;;;;;13.10;7.60;;;;;;;1.05;100.00;100221.36;109457;1252;59439;-61
2023/11/30 07:02:11;;;;;;;12.10;8.30;;;;;;;1.04;100.00;100233.73;109297;1253;76742;-56
2023/11/30 07:04:38;;;;;;;11.80;7.80;;;;;;;1.05;100.00;100232.11;109338;1253;66997;-56
2023/11/30 07:07:06;;;;;;;9.60;7.20;;;;;;;1.07;100.00;100234.89;109281;1253;71732;-62
2023/11/30 07:09:34;;;;;;;11.60;8.10;;;;;;;1.10;100.00;100240.23;109284;1252;60924;-57
2023/11/30 07:12:02;;;;;;;12.30;8.50;;;;;;;1.13;100.00;100234.87;109260;1253;59312;-56
2023/11/30 07:14:30;;;;;;;10.50;8.00;;;;;;;1.15;100.00;100228.06;109374;1253;73439;-55
2023/11/30 07:17:18;;;;;;;12.20;7.60;;;;;;;1.15;100.00;100228.96;109333;1253;65755;-57
2023/11/30 07:19:46;;;;;;;10.30;7.30;;;;;;;1.11;100.00;100231.96;109284;1253;72742;-55
2023/11/30 07:22:13;;;;;;;10.50;6.50;;;;;;;1.10;100.00;100240.73;109268;1253;59948;-56
2023/11/30 07:24:44;;;;;;;9.90;7.20;;;;;;;1.12;100.00;100253.26;109417;1253;60065;-55
2023/11/30 07:27:12;;;;;;;10.10;6.90;;;;;;;1.13;100.00;100254.25;109286;1253;74765;-56
2023/11/30 07:29:39;;;;;;;11.00;7.10;;;;;;;1.13;100.00;100262.95;109279;1253;66963;-61
2023/11/30 07:32:08;;;;;;;11.70;7.00;;;;;;;1.12;100.00;100266.41;109318;1253;72700;-56
2023/11/30 07:34:36;;;;;;;10.40;7.10;;;;;;;1.09;100.00;100270.80;109286;1253;61188;-55
2023/11/30 07:37:04;;;;;;;11.60;8.00;;;;;;;1.09;100.00;100276.44;109377;1253;60045;-56
2023/11/30 07:39:31;;;;;;;10.10;7.40;;;;;;;1.12;100.00;100278.77;109329;1253;75200;-60
2023/11/30 07:41:59;;;;;;;10.90;7.40;;;;;;;1.16;100.00;100278.80;109297;1253;66968;-56
2023/11/30 07:44:28;;;;;;;13.50;8.40;;;;;;;1.17;100.00;100283.30;109251;1253;71626;-56
2023/11/30 07:46:55;;;;;;;11.30;8.30;;;;;;;1.16;100.00;100288.90;109312;1253;59324;-56
2023/11/30 07:49:23;;;;;;;11.60;8.00;;;;;;;1.13;100.00;100285.52;109328;1253;60113;-61
2023/11/30 07:51:51;;;;;;;13.50;7.80;;;;;;;1.12;100.00;100284.60;109283;1252;75429;-56
2023/11/30 07:54:18;;;;;;;10.60;7.00;;;;;;;1.13;100.00;100284.55;109342;1253;65841;-56
2023/11/30 07:56:46;;;;;;;12.90;8.50;;;;;;;1.16;100.00;100287.23;109375;1253;73026;-58
2023/11/30 07:59:13;;;;;;;12.50;8.90;;;;;;;1.18;100.00;100295.55;109411;1253;59037;-55
2023/11/30 08:01:42;;;;;;;14.30;8.10;;;;;;;1.24;100.00;100293.41;109305;1253;59134;-60
2023/11/30 08:04:09;;;;;;;11.50;7.40;;;;;;;1.26;100.00;100293.09;109282;1253;74725;-55
2023/11/30 08:06:39;;;;;;;10.30;7.30;;;;;;;1.26;100.00;100287.81;109316;1253;66928;-56
2023/11/30 08:09:08;;;;;;;10.90;7.80;;;;;;;1.26;100.00;100284.91;109338;1253;72753;-56
2023/11/30 08:11:38;;;;;;;11.90;7.30;;;;;;;1.27;100.00;100282.27;109271;1253;60960;-57
2023/11/30 08:14:06;;;;;;;9.70;6.40;;;;;;;1.30;100.00;100284.19;109379;1253;60501;-56
2023/11/30 08:16:35;;;;;;;11.30;7.00;;;;;;;1.34;100.00;100283.52;109343;1253;73839;-56
2023/11/30 08:19:05;;;;;;;11.00;7.20;;;;;;;1.35;100.00;100286.53;109313;1253;65870;-57
2023/11/30 08:21:33;;;;;;;10.20;6.70;;;;;;;1.38;100.00;100284.80;109305;1253;72436;-57
2023/11/30 08:24:01;;;;;;;9.50;6.40;;;;;;;1.40;100.00;100283.73;109256;1253;59577;-57
2023/11/30 08:26:29;;;;;;;8.90;5.40;;;;;;;1.43;100.00;100276.30;109292;1253;58905;-56
2023/11/30 08:28:57;;;;;;;10.10;6.50;;;;;;;1.48;100.00;100273.82;109424;1253;74786;-57
2023/11/30 08:31:24;;;;;;;9.20;6.30;;;;;;;1.55;100.00;100268.18;109345;1253;66249;-56
2023/11/30 08:33:52;;;;;;;8.40;5.90;;;;;;;1.58;100.00;100274.23;109297;1253;72729;-59
2023/11/30 08:36:20;;;;;;;10.30;6.30;;;;;;;1.63;100.00;100279.82;109315;1253;59300;-57
2023/11/30 08:38:47;;;;;;;9.50;6.60;;;;;;;1.69;100.00;100278.48;109279;1253;59065;-56
2023/11/30 08:41:15;;;;;;;9.20;5.90;;;;;;;1.77;100.00;100284.18;109311;1253;73435;-56
2023/11/30 08:43:42;;;;;;;9.30;6.00;;;;;;;1.84;100.00;100285.66;109373;1253;64991;-56
2023/11/30 08:46:10;;;;;;;8.50;5.60;;;;;;;1.93;100.00;100286.81;109247;1253;71374;-60
2023/11/30 08:48:38;;;;;;;10.20;6.60;;;;;;;2.00;100.00;100276.77;109281;1253;59319;-57
2023/11/30 08:51:07;;;;;;;8.70;5.70;;;;;;;2.07;100.00;100268.64;109309;1253;59036;-57
2023/11/30 08:53:35;;;;;;;8.20;5.30;;;;;;;2.14;100.00;100265.52;109369;1253;74954;-56
2023/11/30 08:56:02;;;;;;;9.60;6.00;;;;;;;2.23;100.00;100259.27;109333;1253;66117;-60
2023/11/30 08:58:30;;;;;;;8.00;5.70;;;;;;;2.30;100.00;100255.45;109281;1252;71403;-56
2023/11/30 09:00:58;;;;;;;7.90;4.90;;;;;;;2.34;100.00;100251.50;109292;1253;59074;-56
2023/11/30 09:03:26;;;;;;;7.50;4.40;;;;;;;2.33;100.00;100257.55;109288;1253;59194;-56
2023/11/30 09:05:54;;;;;;;6.40;4.10;;;;;;;2.35;100.00;100263.05;109362;1253;74933;-56
2023/11/30 09:08:22;;;;;;;7.20;4.20;;;;;;;2.39;100.00;100261.33;109294;1253;67020;-56
2023/11/30 09:10:50;;;;;;;6.70;4.50;;;;;;;2.40;100.00;100254.02;109334;1253;71474;-56
2023/11/30 09:13:17;;;;;;;6.60;4.20;;;;;;;2.41;100.00;100253.67;109292;1253;59427;-56
2023/11/30 09:15:45;;;;;;;6.20;4.40;;;;;;;2.41;100.00;100257.23;109335;1252;58971;-58
2023/11/30 09:18:12;;;;;;;6.90;4.40;;;;;;;2.40;100.00;100254.40;109320;1253;73428;-60
2023/11/30 09:20:40;;;;;;;7.10;4.50;;;;;;;2.39;100.00;100260.12;109323;1253;66935;-58
2023/11/30 09:23:08;;;;;;;6.60;4.20;;;;;;;2.39;100.00;100263.56;109295;1253;71457;-55
2023/11/30 09:25:35;;;;;;;6.60;4.30;;;;;;;2.39;100.00;100264.31;109277;1252;59291;-55
2023/11/30 09:28:03;;;;;;;6.60;4.40;;;;;;;2.41;100.00;100263.75;109378;1253;60092;-56
2023/11/30 09:30:31;;;;;;;7.30;4.40;;;;;;;2.43;100.00;100268.20;109310;1253;74085;-57
2023/11/30 09:32:59;;;;;;;6.80;4.30;;;;;;;2.43;100.00;100262.67;109347;1253;66576;-55
2023/11/30 09:35:26;;;;;;;7.20;3.60;;;;;;;2.46;100.00;100264.70;109320;1253;73702;-56
2023/11/30 09:37:54;;;;;;;5.60;3.20;;;;;;;2.50;100.00;100265.05;109316;1252;63024;-56
2023/11/30 09:40:26;;;;;;;6.80;4.20;;;;;;;2.56;100.00;100261.77;109337;1253;60099;-55
2023/11/30 09:42:54;;;;;;;5.50;3.20;;;;;;;2.60;100.00;100258.98;109188;1256;76042;-58
2023/11/30 09:45:23;;;;;;;5.90;3.60;;;;;;;2.54;100.00;100264.38;109389;1252;66240;-58
2023/11/30 09:47:50;;;;;;;5.10;3.10;;;;;;;2.43;100.00;100264.64;109293;1253;70352;-57
2023/11/30 09:50:18;;;;;;;6.10;3.10;;;;;;;2.34;100.00;100264.83;109316;1253;61657;-57
2023/11/30 09:52:46;;;;;;;6.00;3.60;;;;;;;2.36;100.00;100261.96;109224;1253;60114;-58
2023/11/30 09:55:15;;;;;;;6.10;3.90;;;;;;;2.56;100.00;100261.75;109294;1253;76958;-55
2023/11/30 09:57:42;;;;;;;5.50;3.50;;;;;;;3.01;100.00;100260.96;109262;1253;65840;-54
2023/11/30 10:00:11;;;;;;;5.50;2.80;;;;;;;3.60;100.00;100263.13;109273;1253;74886;-58
2023/11/30 10:02:49;;;;;;;5.30;3.20;;;;;;;4.15;100.00;100258.84;109294;1253;58975;-55
2023/11/30 10:05:17;;;;;;;6.10;3.30;;;;;;;4.64;100.00;100263.40;109185;1253;59410;-56
2023/11/30 10:07:44;;;;;;;5.50;2.90;;;;;;;5.07;100.00;100264.15;109319;1253;77490;-55
2023/11/30 10:10:14;;;;;;;5.30;3.00;;;;;;;5.42;100.00;100257.57;109323;1253;66955;-56
2023/11/30 10:12:42;;;;;;;4.40;2.50;;;;;;;5.73;100.00;100253.78;109285;1253;72825;-56
2023/11/30 10:15:09;;;;;;;5.10;3.00;;;;;;;5.93;100.00;100249.47;109248;1253;59450;-61
2023/11/30 10:17:37;;;;;;;6.20;3.30;;;;;;;6.09;100.00;100244.79;109341;1253;60144;-56
2023/11/30 10:20:11;;;;;;;5.30;2.90;;;;;;;6.24;100.00;100247.63;109408;1253;75424;-57
2023/11/30 10:22:39;;;;;;;5.50;3.10;;;;;;;6.28;100.00;100246.84;109367;1253;67059;-56
2023/11/30 10:25:08;;;;;;;6.10;3.50;;;;;;;6.21;100.00;100247.53;109277;1254;73728;-61
2023/11/30 10:27:36;;;;;;;5.70;3.00;;;;;;;6.09;100.00;100250.20;109285;1253;59382;-58
2023/11/30 10:30:04;;;;;;;4.60;2.70;;;;;;;5.98;100.00;100261.61;109287;1253;60040;-58
2023/11/30 10:32:33;;;;;;;5.50;3.20;;;;;;;5.72;100.00;100266.04;109292;1253;74767;-58
2023/11/30 10:35:03;;;;;;;5.70;2.80;;;;;;;5.36;100.00;100261.81;109303;1253;70665;-62
2023/11/30 10:37:34;;;;;;;4.30;2.60;;;;;;;4.94;100.00;100262.53;109361;1253;72530;-57
2023/11/30 10:40:11;;;;;;;5.70;2.80;;;;;;;4.69;100.00;100263.75;109290;1253;59443;-58
2023/11/30 10:42:40;;;;;;;4.70;2.50;;;;;;;4.52;100.00;100261.52;109314;1252;60192;-57
2023/11/30 10:45:08;;;;;;;5.10;2.90;;;;;;;4.55;100.00;100265.62;109185;1253;75594;-56
2023/11/30 10:47:36;;;;;;;5.30;3.20;;;;;;;4.65;100.00;100269.67;109328;1253;68691;-57
2023/11/30 10:50:05;;;;;;;5.80;3.00;;;;;;;4.79;100.00;100266.77;109246;1253;72379;-57
2023/11/30 10:52:34;;;;;;;4.70;2.60;;;;;;;5.01;100.00;100271.77;109257;1253;59569;-57
2023/11/30 10:55:09;;;;;;;5.10;2.10;;;;;;;5.29;100.00;100279.42;109279;1253;60266;-62
2023/11/30 10:57:43;;;;;;;5.10;3.00;;;;;;;5.58;100.00;100280.92;109216;1253;74869;-57
2023/11/30 11:00:12;;;;;;;5.00;2.50;;;;;;;5.79;100.00;100282.77;109360;1253;68354;-57
2023/11/30 11:02:44;;;;;;;5.10;2.80;;;;;;;5.93;100.00;100288.29;109320;1253;74952;-57
2023/11/30 11:05:15;;;;;;;4.90;3.00;;;;;;;6.03;100.00;100282.36;109278;1253;59654;-57
2023/11/30 11:07:47;;;;;;;5.40;2.90;;;;;;;6.15;100.00;100277.21;109268;1253;60143;-57
2023/11/30 11:10:22;;;;;;;;;;;;;;;6.28;100.00;100280.36;109302;1253;73400;-57
2023/11/30 11:12:50;;;;;;;5.20;2.60;;;;;;;6.32;100.00;100282.65;109307;1253;65801;-60
2023/11/30 11:15:23;;;;;;;4.80;2.80;;;;;;;6.30;100.00;100285.16;109326;1253;73982;-57